Ballinafad, Ireland
Current Conditions -  °F | °C
As of 1:00 PM on Monday 24 Nov 2014 (Local Time) from EISG Reporting Station
Overcast Overcast  
Wind Chill: 41°   Ceiling: 3700
Heat Index: 45°   Visibility: 6mi
Dew Point: 39°   Wind: 7mph
Humidity: 81%   Direction: 120°ESE
Pressure: 30.18"   Gusts: NA
Location:  54.03°N, 8.33°W
Report Text: EISG 241300Z 12006KT 090V230 9999 SCT016 BKN037 OVC047 07/04 Q1022
Loading
Personal Weather Stations






























Interactive Weather Map New forecast layout! Learn more

10-Day Weather Forecast

Advertisements
Track Severe Weather on mobile